Time;durP1;ratioP1;P1;durP2;ratioP2;P2;SDS_P1;SDS_P2;PMS_P1;PMS_P2;Temp;Humidity;BMP_temperature;BMP_pressure;BME280_temperature;BME280_humidity;BME280_pressure;Samples;Min_cycle;Max_cycle;Signal;HPM_P1;HPM_P2
2021/04/26 00:03:48;;;;;;;9.98;6.45;;;;;;;4.62;67.13;100856.59;2935990;81;21127;-64
2021/04/26 00:07:54;;;;;;;8.65;6.45;;;;;;;4.61;67.02;100858.84;2935928;81;21183;-64
2021/04/26 00:11:57;;;;;;;8.95;7.10;;;;;;;4.59;67.99;100855.42;2936025;81;21167;-64
2021/04/26 00:16:00;;;;;;;9.78;6.33;;;;;;;4.57;68.40;100845.43;2936081;81;21108;-63
2021/04/26 00:20:13;;;;;;;10.13;6.30;;;;;;;4.61;68.34;100845.67;2935987;81;21127;-64
2021/04/26 00:24:16;;;;;;;9.98;6.47;;;;;;;4.56;67.98;100843.24;2935799;81;21135;-64
2021/04/26 00:28:19;;;;;;;13.15;7.65;;;;;;;4.52;67.95;100843.01;2935942;81;21136;-64
2021/04/26 00:32:23;;;;;;;18.15;8.28;;;;;;;4.51;67.76;100841.75;2936308;81;21124;-64
2021/04/26 00:36:26;;;;;;;11.80;7.67;;;;;;;4.48;67.46;100835.31;2936196;81;21127;-63
2021/04/26 00:40:30;;;;;;;12.50;7.08;;;;;;;4.40;67.39;100831.72;2935840;81;21199;-63
2021/04/26 00:44:33;;;;;;;11.53;8.43;;;;;;;4.37;67.26;100834.50;2935764;81;21121;-64
2021/04/26 00:48:35;;;;;;;11.97;8.53;;;;;;;4.31;67.21;100833.00;2936012;81;21119;-64
2021/04/26 00:52:39;;;;;;;15.00;8.13;;;;;;;4.24;67.01;100827.64;2936285;81;21166;-65
2021/04/26 00:56:42;;;;;;;17.30;8.78;;;;;;;4.23;66.93;100820.67;2935322;79;21522;-63
2021/04/26 01:00:46;;;;;;;13.00;9.10;;;;;;;4.18;66.64;100822.67;2935109;80;21128;-64
2021/04/26 01:04:48;;;;;;;13.20;7.28;;;;;;;3.99;66.70;100817.78;2935030;80;21112;-63
2021/04/26 01:08:52;;;;;;;11.22;7.80;;;;;;;3.84;67.24;100818.50;2934919;81;21144;-63
2021/04/26 01:13:33;;;;;;;12.80;8.38;;;;;;;3.73;67.76;100815.48;2935142;81;21084;-63
2021/04/26 01:17:42;;;;;;;11.83;8.18;;;;;;;3.79;68.20;100821.33;2935405;81;21104;-63
2021/04/26 01:22:05;;;;;;;15.63;9.93;;;;;;;3.86;67.95;100818.80;2933978;81;21076;-64
2021/04/26 01:26:09;;;;;;;17.95;10.05;;;;;;;3.85;68.21;100814.94;2934900;81;21084;-63
2021/04/26 01:30:43;;;;;;;17.75;9.15;;;;;;;3.77;68.63;100806.52;2909445;81;21577;-64
2021/04/26 01:34:47;;;;;;;14.90;10.38;;;;;;;3.64;69.20;100803.14;2935162;81;21183;-63
2021/04/26 01:38:55;;;;;;;13.50;10.28;;;;;;;3.48;69.47;100801.62;2934967;80;21135;-64
2021/04/26 01:43:00;;;;;;;15.38;10.23;;;;;;;3.41;69.87;100793.16;2935080;81;21151;-63
2021/04/26 01:47:06;;;;;;;17.80;9.58;;;;;;;3.48;70.17;100793.74;2934790;80;21110;-64
2021/04/26 01:51:11;;;;;;;17.27;9.55;;;;;;;3.56;70.04;100792.95;2935025;80;21123;-63
2021/04/26 01:55:15;;;;;;;20.72;10.80;;;;;;;3.62;69.89;100794.91;2934914;81;21096;-64
2021/04/26 01:59:18;;;;;;;23.20;11.38;;;;;;;3.57;70.00;100794.66;2935731;81;21645;-64
2021/04/26 02:03:23;;;;;;;21.42;12.53;;;;;;;3.54;70.33;100792.17;2935962;80;21127;-64
2021/04/26 02:07:28;;;;;;;12.98;9.75;;;;;;;3.62;70.26;100789.66;2935847;81;21084;-64
2021/04/26 02:11:31;;;;;;;12.90;9.50;;;;;;;3.54;70.07;100789.55;2935756;81;21537;-64
2021/04/26 02:15:36;;;;;;;16.42;9.95;;;;;;;3.49;70.31;100782.30;2935605;81;21116;-64
2021/04/26 02:19:39;;;;;;;16.90;10.23;;;;;;;3.49;70.36;100784.92;2936158;81;21135;-63
2021/04/26 02:23:42;;;;;;;16.23;9.68;;;;;;;3.47;70.38;100782.83;2936161;81;21139;-63
2021/04/26 02:27:46;;;;;;;14.73;9.58;;;;;;;3.51;70.14;100783.56;2935828;81;21127;-64
2021/04/26 02:31:51;;;;;;;13.25;9.88;;;;;;;3.43;69.74;100775.52;2936206;81;21477;-64
2021/04/26 02:36:14;;;;;;;14.73;10.23;;;;;;;3.24;69.94;100773.30;2912381;81;21144;-63
2021/04/26 02:40:19;;;;;;;13.25;9.18;;;;;;;3.03;70.44;100772.47;2935345;81;21096;-63
2021/04/26 02:44:30;;;;;;;14.63;8.90;;;;;;;2.88;70.85;100772.67;2912552;81;21128;-64
2021/04/26 02:48:33;;;;;;;13.03;9.85;;;;;;;2.80;71.15;100771.67;2935943;80;21569;-63
2021/04/26 02:52:37;;;;;;;13.35;9.73;;;;;;;2.72;71.34;100773.30;2936072;81;21092;-63
2021/04/26 02:56:42;;;;;;;15.58;9.75;;;;;;;2.70;71.68;100774.66;2935561;80;21135;-63
2021/04/26 03:00:45;;;;;;;12.73;8.65;;;;;;;2.76;71.50;100766.99;2934942;81;21546;-64
2021/04/26 03:04:50;;;;;;;12.68;8.75;;;;;;;2.87;71.25;100765.70;2935291;81;21108;-65
2021/04/26 03:08:53;;;;;;;14.53;9.78;;;;;;;2.95;70.93;100771.03;2935004;81;21128;-64
2021/04/26 03:12:57;;;;;;;18.87;11.73;;;;;;;3.01;70.76;100773.84;2904973;81;21149;-63
2021/04/26 03:17:00;;;;;;;15.13;10.93;;;;;;;3.02;70.48;100770.77;2898245;82;21126;-62
2021/04/26 03:21:10;;;;;;;18.70;11.88;;;;;;;3.10;70.41;100768.65;2898086;81;21098;-65
2021/04/26 03:25:16;;;;;;;56.40;42.60;;;;;;;3.12;69.99;100769.44;2898178;82;21167;-64
2021/04/26 03:29:22;;;;;;;20.48;13.10;;;;;;;3.13;69.50;100768.52;2897793;82;21093;-64
2021/04/26 03:33:29;;;;;;;13.40;9.95;;;;;;;3.05;69.43;100766.69;2898405;81;21122;-65
2021/04/26 03:37:33;;;;;;;16.42;9.85;;;;;;;2.82;69.23;100761.95;2897988;82;21102;-65
2021/04/26 03:41:41;;;;;;;14.87;9.33;;;;;;;2.67;69.86;100771.33;2898105;81;21117;-65
2021/04/26 03:45:45;;;;;;;21.75;12.00;;;;;;;2.68;70.17;100772.56;2898141;82;21133;-65
2021/04/26 03:49:48;;;;;;;13.70;9.23;;;;;;;2.80;70.07;100774.30;2898010;82;21121;-65
2021/04/26 03:53:50;;;;;;;12.10;9.35;;;;;;;2.92;70.12;100767.67;2898253;82;21107;-65
2021/04/26 03:57:54;;;;;;;15.08;8.60;;;;;;;3.00;69.32;100771.69;2892945;82;21185;-65
2021/04/26 04:01:57;;;;;;;25.50;10.98;;;;;;;3.02;69.93;100772.08;2891210;82;21103;-64
2021/04/26 04:06:00;;;;;;;16.48;10.03;;;;;;;3.54;71.16;100779.02;2890957;81;21607;-65
2021/04/26 04:10:10;;;;;;;14.93;8.58;;;;;;;4.35;72.35;100782.36;2891021;82;21134;-64
2021/04/26 04:14:13;;;;;;;16.62;10.20;;;;;;;5.38;72.79;100783.44;2891245;82;21094;-63
2021/04/26 04:18:16;;;;;;;17.17;9.53;;;;;;;6.36;71.71;100786.14;2891190;82;21130;-66
2021/04/26 04:22:19;;;;;;;17.48;9.55;;;;;;;6.59;64.50;100776.08;2891644;82;21114;-64
2021/04/26 04:26:22;;;;;;;16.95;8.85;;;;;;;6.16;62.63;100783.31;2891288;82;21102;-64
2021/04/26 04:30:24;;;;;;;19.07;9.55;;;;;;;5.94;62.53;100779.17;2891229;82;21102;-65
2021/04/26 04:34:27;;;;;;;16.32;9.15;;;;;;;6.04;63.04;100781.71;2891174;82;21106;-64
2021/04/26 04:38:30;;;;;;;14.47;9.88;;;;;;;6.46;63.09;100782.51;2891207;81;21141;-65
2021/04/26 04:42:33;;;;;;;18.32;10.28;;;;;;;6.34;60.52;100782.28;2891346;81;21090;-64
2021/04/26 04:46:36;;;;;;;12.40;9.28;;;;;;;5.75;62.17;100792.50;2891360;82;21169;-63
2021/04/26 04:50:39;;;;;;;17.07;10.38;;;;;;;5.60;63.51;100794.18;2890932;82;21110;-64
2021/04/26 04:54:42;;;;;;;19.12;11.20;;;;;;;5.46;63.59;100793.11;2891534;82;21552;-63
2021/04/26 04:58:45;;;;;;;13.80;10.48;;;;;;;5.15;63.70;100790.27;2896879;81;21093;-63
2021/04/26 05:02:48;;;;;;;17.30;10.28;;;;;;;5.04;65.19;100789.98;2898372;82;21484;-64
2021/04/26 05:06:51;;;;;;;12.33;9.90;;;;;;;5.15;66.37;100793.39;2898199;81;21145;-63
2021/04/26 05:10:54;;;;;;;18.65;13.03;;;;;;;5.86;69.72;100798.07;2872211;82;21113;-64
2021/04/26 05:14:57;;;;;;;23.10;15.43;;;;;;;6.38;65.29;100801.44;2900994;82;21112;-63
2021/04/26 05:19:00;;;;;;;19.10;13.78;;;;;;;6.68;64.29;100800.20;2900611;82;21105;-64
2021/04/26 05:23:03;;;;;;;23.67;12.90;;;;;;;7.18;65.07;100798.64;2900925;82;21161;-65
2021/04/26 05:27:07;;;;;;;21.90;11.57;;;;;;;7.77;63.13;100796.42;2900654;80;21097;-63
2021/04/26 05:31:10;;;;;;;18.52;12.70;;;;;;;8.24;62.71;100798.35;2900570;82;21106;-65
2021/04/26 05:35:13;;;;;;;20.17;12.30;;;;;;;8.31;61.16;100804.58;2900977;82;21115;-64
2021/04/26 05:39:16;;;;;;;20.77;11.48;;;;;;;8.57;59.76;100794.97;2900756;81;21126;-64
2021/04/26 05:43:20;;;;;;;21.45;12.73;;;;;;;7.93;59.12;100794.98;2900839;81;21172;-65
2021/04/26 05:47:22;;;;;;;19.30;11.33;;;;;;;7.40;61.20;100794.25;2900728;80;21094;-64
2021/04/26 05:51:25;;;;;;;18.80;11.78;;;;;;;7.22;61.38;100793.53;2900861;81;21102;-65
2021/04/26 05:55:29;;;;;;;12.50;9.70;;;;;;;7.71;62.90;100795.48;2900608;82;21571;-64
2021/04/26 05:59:32;;;;;;;12.43;9.40;;;;;;;8.21;60.84;100800.34;2893800;82;21504;-65
2021/04/26 06:03:36;;;;;;;14.73;10.90;;;;;;;8.57;58.25;100797.62;2893874;81;21157;-63
2021/04/26 06:07:41;;;;;;;17.77;9.48;;;;;;;9.02;58.39;100786.72;2893683;82;21544;-65
2021/04/26 06:11:44;;;;;;;14.47;10.82;;;;;;;9.43;57.12;100782.17;2893725;82;21125;-64
2021/04/26 06:15:47;;;;;;;18.73;10.88;;;;;;;9.57;55.84;100778.58;2893678;82;21130;-65
2021/04/26 06:19:50;;;;;;;10.35;7.70;;;;;;;9.80;55.46;100784.91;2893932;82;21125;-65
2021/04/26 06:23:53;;;;;;;13.10;9.60;;;;;;;9.98;54.22;100781.91;2893943;82;21133;-65
2021/04/26 06:27:56;;;;;;;18.92;10.05;;;;;;;10.08;53.61;100778.97;2893881;80;21186;-65
2021/04/26 06:31:59;;;;;;;20.35;10.53;;;;;;;9.97;54.36;100779.75;2893944;81;21102;-65
2021/04/26 06:36:03;;;;;;;17.07;7.58;;;;;;;10.00;54.21;100772.02;2894036;82;21113;-65
2021/04/26 06:40:08;;;;;;;11.50;6.55;;;;;;;10.12;54.42;100771.61;2893781;82;21086;-64
2021/04/26 06:44:11;;;;;;;16.00;7.12;;;;;;;10.16;54.02;100765.13;2894014;81;21098;-65
2021/04/26 06:48:17;;;;;;;14.40;6.20;;;;;;;10.34;53.27;100758.94;2893816;81;21097;-65
2021/04/26 06:52:20;;;;;;;6.95;4.85;;;;;;;10.45;52.62;100760.00;2893769;81;21117;-66
2021/04/26 06:56:22;;;;;;;8.38;4.92;;;;;;;10.49;52.02;100756.16;2894336;81;21144;-65
2021/04/26 07:00:27;;;;;;;7.80;4.80;;;;;;;10.46;50.89;100753.72;2901033;82;21129;-64
2021/04/26 07:04:30;;;;;;;6.45;4.55;;;;;;;10.43;50.53;100747.67;2900909;82;21536;-65
2021/04/26 07:08:33;;;;;;;7.65;4.25;;;;;;;10.35;51.49;100741.19;2900916;82;21160;-65
2021/04/26 07:12:37;;;;;;;3.87;2.47;;;;;;;10.40;50.55;100732.38;2901164;82;21114;-64
2021/04/26 07:16:42;;;;;;;3.77;3.37;;;;;;;10.57;49.03;100735.13;2901099;81;21098;-66
2021/04/26 07:20:45;;;;;;;3.83;2.00;;;;;;;10.63;49.83;100736.49;2900849;82;21102;-64
2021/04/26 07:24:49;;;;;;;3.80;1.52;;;;;;;10.52;47.73;100730.65;2901116;81;21213;-65
2021/04/26 07:28:53;;;;;;;3.58;2.27;;;;;;;10.47;48.01;100726.16;2900827;80;21157;-64
2021/04/26 07:32:56;;;;;;;4.33;1.87;;;;;;;10.65;46.80;100727.45;2901423;82;21101;-64
2021/04/26 07:37:00;;;;;;;3.62;2.45;;;;;;;11.05;46.31;100722.71;2901264;82;21129;-64
2021/04/26 07:41:03;;;;;;;4.25;2.83;;;;;;;11.23;44.77;100723.09;2901209;82;21097;-65
2021/04/26 07:45:08;;;;;;;7.08;1.67;;;;;;;11.20;45.72;100722.00;2901443;82;21154;-65
2021/04/26 07:49:11;;;;;;;2.67;2.42;;;;;;;11.36;45.46;100728.30;2901463;81;21535;-65
2021/04/26 07:53:16;;;;;;;3.30;2.20;;;;;;;11.51;44.90;100725.77;2901301;81;21169;-64
2021/04/26 07:57:19;;;;;;;1.12;0.93;;;;;;;11.62;45.00;100721.42;2901264;81;21125;-65
2021/04/26 08:01:22;;;;;;;1.95;0.80;;;;;;;11.33;43.50;100725.88;2901282;82;21145;-65
2021/04/26 08:05:25;;;;;;;2.17;1.40;;;;;;;11.07;42.22;100723.44;2901333;82;21074;-65
2021/04/26 08:09:29;;;;;;;1.50;0.85;;;;;;;11.07;42.33;100722.11;2901177;82;21113;-65
2021/04/26 08:13:32;;;;;;;2.20;0.98;;;;;;;11.26;41.42;100731.70;2901275;82;21094;-65
2021/04/26 08:17:37;;;;;;;5.35;1.55;;;;;;;11.43;42.26;100732.20;2900975;82;21125;-65
2021/04/26 08:21:41;;;;;;;3.70;1.32;;;;;;;11.10;41.27;100725.86;2901139;82;21102;-63
2021/04/26 08:25:45;;;;;;;0.95;0.78;;;;;;;10.96;41.16;100727.76;2901138;80;21110;-65
2021/04/26 08:29:49;;;;;;;1.98;1.00;;;;;;;10.91;42.37;100724.61;2901255;82;21129;-64
2021/04/26 08:33:52;;;;;;;3.40;0.98;;;;;;;10.76;40.30;100731.09;2900873;81;21097;-65
2021/04/26 08:37:56;;;;;;;1.47;0.50;;;;;;;10.89;41.74;100717.70;2900950;82;21097;-64
2021/04/26 08:41:59;;;;;;;2.05;0.90;;;;;;;11.01;41.17;100730.08;2900959;81;21145;-63
2021/04/26 08:46:02;;;;;;;1.55;1.30;;;;;;;10.62;41.18;100730.34;2900978;82;21133;-65
2021/04/26 08:50:08;;;;;;;7.58;1.12;;;;;;;10.68;41.80;100733.00;2900908;82;21196;-66
2021/04/26 08:54:19;;;;;;;2.42;1.15;;;;;;;10.80;42.39;100729.89;2901108;81;21169;-65
2021/04/26 08:58:22;;;;;;;1.35;0.70;;;;;;;11.06;42.97;100727.06;2895806;81;21125;-64
2021/04/26 09:02:25;;;;;;;1.72;0.80;;;;;;;11.36;41.60;100722.97;2889458;82;21129;-66
2021/04/26 09:06:52;;;;;;;1.55;1.40;;;;;;;11.55;40.53;100717.89;2889909;82;21105;-66
2021/04/26 09:11:02;;;;;;;0.83;0.80;;;;;;;11.57;40.32;100725.27;2889891;82;21154;-64
2021/04/26 09:15:07;;;;;;;1.40;0.78;;;;;;;11.52;39.99;100716.80;2889572;82;21581;-64
2021/04/26 09:19:10;;;;;;;5.37;1.07;;;;;;;11.64;40.63;100710.98;2889707;82;22520;-65
2021/04/26 09:23:16;;;;;;;2.10;1.03;;;;;;;11.74;40.08;100705.77;2890140;82;21142;-64
2021/04/26 09:27:19;;;;;;;0.57;0.55;;;;;;;11.34;39.82;100707.13;2889775;81;21078;-64
2021/04/26 09:31:22;;;;;;;3.00;1.32;;;;;;;11.42;40.48;100704.70;2889749;82;21161;-65
2021/04/26 09:35:29;;;;;;;2.08;0.68;;;;;;;11.48;39.63;100710.03;2889800;82;21130;-65
2021/04/26 09:39:32;;;;;;;2.50;0.85;;;;;;;11.37;39.49;100706.02;2889678;82;21142;-64
2021/04/26 09:43:36;;;;;;;0.60;0.53;;;;;;;11.35;39.71;100702.64;2890007;82;21114;-64
2021/04/26 09:47:39;;;;;;;3.62;0.98;;;;;;;11.51;40.96;100696.47;2889970;82;21110;-66
2021/04/26 09:51:50;;;;;;;1.92;0.60;;;;;;;11.73;41.28;100688.08;2889678;82;38866;-65
2021/04/26 09:56:19;;;;;;;2.52;0.88;;;;;;;12.00;42.40;100678.84;3000055;77;22239;-66
2021/04/26 10:00:24;;;;;;;2.70;1.47;;;;;;;12.03;43.78;100689.28;2953595;80;21109;-67
2021/04/26 10:04:27;;;;;;;2.35;1.12;;;;;;;12.14;40.46;100682.56;2953642;80;21591;-65
2021/04/26 10:08:32;;;;;;;1.00;0.80;;;;;;;12.33;40.41;100678.88;2953706;79;21105;-65
2021/04/26 10:12:35;;;;;;;0.95;0.72;;;;;;;12.46;39.65;100672.84;2953660;79;21117;-65
2021/04/26 10:16:56;;;;;;;2.62;1.07;;;;;;;12.38;41.25;100671.33;2953787;80;21137;-65
2021/04/26 10:21:00;;;;;;;1.72;0.70;;;;;;;12.44;41.70;100662.80;2953627;80;21117;-66
2021/04/26 10:25:06;;;;;;;2.98;0.95;;;;;;;12.45;42.34;100655.15;2952107;80;21229;-66
2021/04/26 10:29:27;;;;;;;1.85;1.20;;;;;;;12.52;40.43;100659.48;2902556;82;21113;-64
2021/04/26 10:34:00;;;;;;;2.42;0.90;;;;;;;12.50;42.21;100654.77;2901312;80;21070;-65
2021/04/26 10:38:27;;;;;;;4.03;1.32;;;;;;;12.65;42.38;100645.95;2902467;82;21141;-66
2021/04/26 10:42:38;;;;;;;4.83;1.00;;;;;;;12.41;38.16;100641.25;2902531;82;21555;-65
2021/04/26 10:46:45;;;;;;;1.37;0.93;;;;;;;12.34;41.73;100637.37;2902605;80;21546;-65
2021/04/26 10:50:50;;;;;;;;;;;;;;;12.40;41.60;100636.02;2905084;82;21105;-64
2021/04/26 10:55:01;;;;;;;2.58;1.20;;;;;;;12.26;39.64;100623.85;2902427;81;20228;-65
2021/04/26 10:59:23;;;;;;;2.90;1.15;;;;;;;12.27;42.03;100626.87;2902283;82;21533;-66
2021/04/26 11:03:31;;;;;;;3.22;1.07;;;;;;;12.46;40.29;100618.66;2902643;82;21113;-65
2021/04/26 11:07:38;;;;;;;1.90;0.75;;;;;;;12.71;40.99;100613.41;2901709;82;21168;-65
2021/04/26 11:11:55;;;;;;;1.62;0.90;;;;;;;13.01;43.07;100607.72;2901632;82;21153;-65
2021/04/26 11:16:15;;;;;;;2.08;1.17;;;;;;;13.25;41.39;100604.73;2900968;82;21114;-66
2021/04/26 11:20:27;;;;;;;2.58;0.78;;;;;;;13.31;40.24;100606.49;2901465;82;21497;-65
2021/04/26 11:24:49;;;;;;;2.22;1.17;;;;;;;13.04;40.57;100611.45;2901853;82;21114;-65
2021/04/26 11:29:08;;;;;;;0.95;0.57;;;;;;;12.48;40.91;100607.37;2901549;80;21094;-66
2021/04/26 11:33:14;;;;;;;3.12;1.20;;;;;;;11.93;40.95;100604.31;2901558;82;21102;-66
2021/04/26 11:37:37;;;;;;;2.40;0.93;;;;;;;11.74;40.33;100600.50;2900899;82;21157;-66
2021/04/26 11:41:46;;;;;;;1.10;1.00;;;;;;;11.94;40.90;100589.54;2901468;82;21074;-65
2021/04/26 11:45:49;;;;;;;2.40;1.02;;;;;;;12.12;42.13;100577.84;2901635;82;21142;-65
2021/04/26 11:49:56;;;;;;;2.35;0.85;;;;;;;12.29;39.48;100580.91;2901370;82;21113;-64
2021/04/26 11:54:15;;;;;;;4.12;1.55;;;;;;;12.32;40.61;100574.48;2901630;81;21144;-65
2021/04/26 11:58:25;;;;;;;3.77;0.90;;;;;;;12.02;41.00;100569.41;2901468;82;21181;-65
2021/04/26 12:02:37;;;;;;;3.45;1.60;;;;;;;11.70;39.20;100564.42;2901357;82;21105;-65
2021/04/26 12:06:43;;;;;;;2.33;1.27;;;;;;;11.53;40.80;100562.64;2901238;82;21102;-64
2021/04/26 12:10:47;;;;;;;2.15;0.80;;;;;;;11.57;40.60;100553.42;2901290;82;21564;-66
2021/04/26 12:15:00;;;;;;;2.40;1.52;;;;;;;11.91;39.97;100546.28;2901398;82;21113;-64
2021/04/26 12:19:05;;;;;;;6.37;1.10;;;;;;;12.12;40.13;100537.84;2900886;81;21552;-65
2021/04/26 12:23:21;;;;;;;4.20;1.52;;;;;;;12.41;39.78;100535.86;2901436;82;21562;-65
2021/04/26 12:27:27;;;;;;;3.12;1.05;;;;;;;12.50;39.78;100538.23;2901347;80;21500;-65
2021/04/26 12:31:30;;;;;;;;;;;;;;;12.67;40.24;100527.42;2904221;82;21141;-66
2021/04/26 12:35:34;;;;;;;4.05;1.45;;;;;;;12.93;41.19;100525.61;2901540;82;20130;-66
2021/04/26 12:39:36;;;;;;;2.33;0.98;;;;;;;13.24;41.92;100507.34;2901547;81;21138;-65
2021/04/26 12:43:43;;;;;;;1.07;0.50;;;;;;;13.49;38.94;100509.19;2901628;82;21101;-65
2021/04/26 12:47:52;;;;;;;;;;;;;;;13.36;39.38;100498.72;2904070;82;21627;-67
2021/04/26 12:51:55;;;;;;;1.02;0.55;;;;;;;13.17;38.10;100501.73;2901361;82;20134;-66
2021/04/26 12:56:16;;;;;;;1.60;1.00;;;;;;;13.22;38.13;100495.48;2919338;81;21116;-65
2021/04/26 13:00:18;;;;;;;1.80;1.40;;;;;;;13.33;39.03;100489.64;2924276;81;21148;-65
2021/04/26 13:04:21;;;;;;;4.00;0.98;;;;;;;13.25;37.56;100476.98;2924976;81;21139;-66
2021/04/26 13:08:26;;;;;;;1.15;0.95;;;;;;;13.32;38.21;100466.11;2898973;81;21586;-65
2021/04/26 13:12:29;;;;;;;2.33;1.10;;;;;;;13.35;37.70;100468.98;2924547;81;21101;-66
2021/04/26 13:16:41;;;;;;;4.15;0.80;;;;;;;13.45;38.40;100461.00;2923737;80;21144;-64
2021/04/26 13:20:51;;;;;;;5.20;2.10;;;;;;;13.53;37.82;100455.81;2922244;81;21121;-63
2021/04/26 13:24:59;;;;;;;3.12;1.05;;;;;;;13.62;38.71;100456.28;2919863;81;21113;-60
2021/04/26 13:33:37;;;;;;;4.15;1.07;;;;;;;13.78;37.51;100450.86;2924255;81;21125;-64
2021/04/26 13:42:16;;;;;;;2.27;1.20;;;;;;;13.51;36.37;100437.23;2917271;80;21116;-62
2021/04/26 13:46:19;;;;;;;2.83;1.37;;;;;;;13.26;36.74;100426.58;2880870;81;21495;-62
2021/04/26 13:50:56;;;;;;;1.98;0.90;;;;;;;13.12;36.99;100413.15;2903518;81;21089;-63
2021/04/26 13:55:03;;;;;;;0.80;0.65;;;;;;;12.86;36.73;100425.19;2913532;81;21101;-65
2021/04/26 13:59:38;;;;;;;1.70;0.78;;;;;;;12.83;38.01;100419.30;2901079;82;21105;-63
2021/04/26 14:03:43;;;;;;;2.95;1.32;;;;;;;12.94;37.50;100403.66;2900364;82;21105;-63
2021/04/26 14:08:23;;;;;;;2.08;1.32;;;;;;;13.08;38.19;100398.39;2867596;81;21101;-61
2021/04/26 14:12:26;;;;;;;1.05;0.90;;;;;;;13.22;38.48;100397.13;2851478;83;21144;-64
2021/04/26 14:16:29;;;;;;;1.15;0.55;;;;;;;13.37;37.08;100394.91;2883487;82;21573;-64
2021/04/26 14:25:14;;;;;;;2.90;1.12;;;;;;;13.24;35.36;100384.00;2890720;80;21093;-63
2021/04/26 14:29:20;;;;;;;5.20;0.83;;;;;;;13.24;37.97;100374.65;2899204;80;21535;-63
2021/04/26 14:33:23;;;;;;;1.40;0.70;;;;;;;13.20;37.00;100375.92;2897832;82;21149;-62
2021/04/26 14:37:26;;;;;;;2.33;0.78;;;;;;;13.29;36.24;100366.22;2901223;80;21106;-64
2021/04/26 14:41:30;;;;;;;1.65;0.60;;;;;;;13.45;36.41;100368.81;2900185;82;21102;-67
2021/04/26 14:45:33;;;;;;;4.15;1.15;;;;;;;13.48;34.98;100365.87;2897644;82;21161;-67
2021/04/26 14:49:36;;;;;;;1.65;1.52;;;;;;;13.60;35.35;100363.89;2898222;82;21126;-67
2021/04/26 14:53:39;;;;;;;1.67;0.75;;;;;;;13.66;35.97;100358.81;2897847;81;21565;-67
2021/04/26 14:57:43;;;;;;;8.75;6.70;;;;;;;13.65;37.32;100362.44;2898509;82;21078;-67
2021/04/26 15:01:46;;;;;;;2.30;1.37;;;;;;;13.52;35.16;100353.41;2898376;82;21102;-67
2021/04/26 15:05:49;;;;;;;4.60;1.32;;;;;;;13.46;36.40;100350.45;2898308;82;21563;-67
2021/04/26 15:09:53;;;;;;;1.22;0.60;;;;;;;13.40;35.57;100344.67;2898474;82;21074;-67
2021/04/26 15:13:57;;;;;;;3.25;1.35;;;;;;;13.64;34.81;100339.89;2898759;82;21097;-67
2021/04/26 15:18:00;;;;;;;34.80;14.83;;;;;;;13.92;34.86;100340.79;2898475;82;21170;-67
2021/04/26 15:22:05;;;;;;;33.67;14.98;;;;;;;14.17;34.60;100342.95;2898653;81;21167;-67
2021/04/26 15:26:11;;;;;;;11.83;5.03;;;;;;;14.14;34.77;100338.22;2898559;82;21173;-67
2021/04/26 15:30:16;;;;;;;1.87;1.07;;;;;;;14.10;36.04;100330.14;2898568;82;21090;-67
2021/04/26 15:34:19;;;;;;;1.62;1.05;;;;;;;13.83;34.69;100333.62;2898722;82;21094;-67
2021/04/26 15:38:23;;;;;;;4.22;0.93;;;;;;;13.65;34.25;100333.05;2898864;82;21122;-67
2021/04/26 15:42:27;;;;;;;5.83;1.10;;;;;;;13.51;35.10;100322.32;2898915;81;21098;-67
2021/04/26 15:46:30;;;;;;;3.65;0.95;;;;;;;13.56;35.85;100328.10;2898706;82;21462;-67
2021/04/26 15:50:35;;;;;;;3.70;1.67;;;;;;;13.55;35.33;100328.23;2898764;82;21098;-67
2021/04/26 15:54:37;;;;;;;1.67;0.98;;;;;;;13.29;35.94;100330.98;2898310;81;21571;-67
2021/04/26 15:58:40;;;;;;;2.95;1.12;;;;;;;12.97;37.66;100324.13;2898510;82;21118;-67
2021/04/26 16:02:44;;;;;;;5.72;1.10;;;;;;;12.55;36.46;100321.68;2898357;82;21102;-67
2021/04/26 16:06:47;;;;;;;4.22;1.32;;;;;;;12.30;37.47;100319.05;2898157;82;21177;-67
2021/04/26 16:10:50;;;;;;;2.40;0.93;;;;;;;12.21;38.35;100310.05;2898257;82;21129;-67
2021/04/26 16:14:53;;;;;;;2.42;1.20;;;;;;;12.22;38.23;100309.06;2898123;82;21083;-67
2021/04/26 16:18:56;;;;;;;2.58;1.62;;;;;;;12.20;38.29;100306.52;2898240;82;21089;-67
2021/04/26 16:23:01;;;;;;;1.15;0.85;;;;;;;12.11;39.36;100309.51;2898170;82;21149;-67
2021/04/26 16:27:05;;;;;;;3.37;1.57;;;;;;;11.98;39.48;100301.72;2898118;81;21127;-67
2021/04/26 16:31:09;;;;;;;2.80;1.60;;;;;;;11.92;39.13;100298.74;2898140;82;21181;-67
2021/04/26 16:35:13;;;;;;;1.87;1.45;;;;;;;11.96;39.20;100298.82;2879793;82;21149;-62
2021/04/26 16:39:16;;;;;;;1.80;1.42;;;;;;;11.98;40.01;100290.20;2898960;80;21121;-60
2021/04/26 16:43:20;;;;;;;2.77;1.32;;;;;;;11.93;40.62;100309.76;2897309;81;21165;-61
2021/04/26 16:47:24;;;;;;;4.78;1.60;;;;;;;11.59;39.64;100298.88;2897689;81;21169;-61
2021/04/26 16:51:28;;;;;;;4.85;2.17;;;;;;;11.24;39.60;100300.92;2897894;82;21225;-61
2021/04/26 16:55:32;;;;;;;2.85;1.82;;;;;;;10.96;40.22;100299.73;2897316;80;21192;-62
2021/04/26 16:59:40;;;;;;;2.95;1.55;;;;;;;10.70;41.08;100302.25;2897731;82;21552;-60
2021/04/26 17:03:43;;;;;;;3.92;2.02;;;;;;;10.53;41.88;100288.16;2897472;82;21574;-61
2021/04/26 17:07:47;;;;;;;1.72;1.47;;;;;;;10.42;41.30;100292.55;2897430;82;21137;-61
2021/04/26 17:11:49;;;;;;;4.42;3.27;;;;;;;10.33;41.19;100288.44;2894171;80;21105;-60
2021/04/26 17:15:53;;;;;;;6.10;2.95;;;;;;;10.23;42.19;100290.48;2896127;82;21102;-60
2021/04/26 17:19:57;;;;;;;7.20;3.80;;;;;;;10.15;41.50;100286.28;2897303;82;21193;-61
2021/04/26 17:24:03;;;;;;;5.45;2.33;;;;;;;10.03;42.86;100288.58;2897286;81;21213;-60
2021/04/26 17:28:06;;;;;;;6.72;4.17;;;;;;;9.90;43.29;100289.55;2897436;82;21198;-60
2021/04/26 17:32:10;;;;;;;6.75;3.60;;;;;;;9.82;45.17;100288.82;2920446;80;21122;-61
2021/04/26 17:36:14;;;;;;;6.35;2.92;;;;;;;9.75;45.08;100288.95;2948244;80;21427;-61
2021/04/26 17:40:18;;;;;;;1.82;1.12;;;;;;;9.63;45.57;100291.23;2945804;80;21599;-60
2021/04/26 17:44:20;;;;;;;3.92;2.60;;;;;;;9.45;44.65;100295.70;2938225;80;21170;-61
2021/04/26 17:48:26;;;;;;;10.82;2.87;;;;;;;9.33;45.41;100292.16;2895483;82;21130;-60
2021/04/26 17:52:30;;;;;;;3.10;2.30;;;;;;;9.24;45.97;100295.52;2895661;82;21158;-59
2021/04/26 17:56:33;;;;;;;3.55;2.15;;;;;;;9.16;46.09;100296.60;2900347;81;21571;-60
2021/04/26 18:00:37;;;;;;;7.33;2.67;;;;;;;9.03;46.44;100300.64;2904574;81;21168;-59
2021/04/26 18:04:40;;;;;;;15.60;7.25;;;;;;;8.89;46.96;100305.19;2905506;80;21601;-58
2021/04/26 18:08:43;;;;;;;6.83;4.42;;;;;;;8.79;47.61;100310.34;2920264;80;21178;-59
2021/04/26 18:12:48;;;;;;;8.83;4.17;;;;;;;8.66;47.91;100302.45;2907123;81;21577;-60
2021/04/26 18:16:54;;;;;;;8.95;4.08;;;;;;;8.58;48.61;100316.73;2868196;81;21172;-60
2021/04/26 18:21:13;;;;;;;7.05;4.28;;;;;;;8.46;49.53;100318.44;2857851;82;21607;-60
2021/04/26 18:25:17;;;;;;;9.30;3.85;;;;;;;8.34;49.88;100317.52;2857825;81;21713;-60
2021/04/26 18:29:21;;;;;;;6.58;2.70;;;;;;;8.25;50.35;100324.33;2857870;82;21185;-60
2021/04/26 18:33:24;;;;;;;4.60;3.12;;;;;;;8.17;51.16;100325.83;2857112;82;21188;-61
2021/04/26 18:37:27;;;;;;;3.37;2.45;;;;;;;8.07;51.42;100328.29;2857765;83;21173;-60
2021/04/26 18:41:31;;;;;;;5.28;2.35;;;;;;;7.96;51.75;100329.91;2944640;80;21154;-60
2021/04/26 18:45:38;;;;;;;3.90;2.90;;;;;;;7.85;52.06;100328.48;2930957;80;21144;-60
2021/04/26 18:49:38;;;;;;;2.40;2.15;;;;;;;7.77;52.21;100330.33;2907242;81;21177;-61
2021/04/26 18:53:42;;;;;;;2.98;1.67;;;;;;;7.74;52.15;100334.98;2907904;81;21117;-61
2021/04/26 18:57:47;;;;;;;4.45;2.90;;;;;;;7.70;51.93;100343.14;2936350;80;21176;-61
2021/04/26 19:01:50;;;;;;;3.02;1.85;;;;;;;7.69;51.88;100345.92;2903474;82;21148;-61
2021/04/26 19:05:53;;;;;;;4.85;2.08;;;;;;;7.67;52.21;100346.50;2903251;82;21168;-60
2021/04/26 19:09:56;;;;;;;3.40;2.42;;;;;;;7.66;53.34;100346.09;2903059;82;21613;-60
2021/04/26 19:14:01;;;;;;;11.40;3.62;;;;;;;7.54;53.76;100351.30;2903338;82;21575;-61
2021/04/26 19:18:06;;;;;;;6.97;4.00;;;;;;;7.45;53.95;100350.59;2921354;80;21793;-61